Reno, NV (89501)

7:09 PM PDT on July 30, 2016 (GMT -0700)
UNR Campus, LMR Roof | | Change Station
Active Advisory: Areal Flood Advisory

Elev 4570 ft 39.54 °N, 119.81 °W | Updated 1 second ago

Partly Cloudy
Partly Cloudy
89.1 °F
Feels Like 85 °F
N
10.1
Wind Variable Wind from SSW
Gusts 22.5 mph

Today
High -- | Low -- °F
--% Chance of Precip.
Yesterday
High -- | Low -- °F
Precip. -- in
Pressure 29.75 in
Visibility 10.0 miles
Clouds Few 11000 ft
Heat Index 85 °F
Dew Point 42 °F
Humidity 19%
Rainfall 0.00 in
Snow Depth Not available.
5:57 AM 8:13 PM
Waning Crescent, 9% visible
METAR KRNO 310155Z 28015G28KT 10SM FEW110 33/04 A2995 RMK AO2 PK WND 28028/0148 SLP074 TCU DSNT SE FU ALQDS T03280039
Pressure 29.75 in
Visibility 10.0 miles
Clouds Few 11000 ft
Heat Index 85 °F
Dew Point 42 °F
Humidity 19%
Rainfall 0.00 in
Snow Depth Not available.
5:57 AM 8:13 PM
Waning Crescent, 9% visible
METAR KRNO 310155Z 28015G28KT 10SM FEW110 33/04 A2995 RMK AO2 PK WND 28028/0148 SLP074 TCU DSNT SE FU ALQDS T03280039

10-Day Weather Forecast

Almanac

Astronomy

Jul. 30, 2016 Rise Set
Actual Time
Civil Twilight
Nautical Twilight
Astronomical Twilight
Moon
Length of Visible Light
Length of Day
Tomorrow will be .
, % of the Moon is Illuminated

Today's Extremes

State Highs State Lows

Community

WunderPhotos

Upload Photos

1,928,706 photos uploaded!

WunderBlog® & News

Nearby

Air Quality

  Air Quality AQ Index Pollutant
Not available.

Snow Depth

Station Depth Elevation

Earthquake Activity

City Distance Mag. Time & Date
Minimum magnitude displayed is 2.5.

Coastal Water Temperatures

Place Temperature

Stations

Nearby Weather Stations

Station Location Temp. Windchill Dew Point Humidity Wind Precip. Elev Updated Type
                   

Watches & Warnings

Areal Flood Advisory
Issued: 7:00 PM PDT Jul. 30, 2016 – National Weather Service

... The small stream Flood Advisory remains in effect until 845 PM PDT
for south central Lyon County...

At 656 PM PDT... Doppler radar indicated a significant decrease in
rain across the advisory area. While the rain has decreased... any
runoff may still be capable on making its way down small streams or
alluvial fans in the area that could cause flooding. Radar estimates
that over one inch of rain has already fallen.

This flooding will remain over mainly rural areas of south central
Lyon County. East Walker Road north of flying M ranch may be
affected by debris flows through 830 PM.

Precautionary/preparedness actions...

Please report flooding to your local law enforcement agency when you
can do so safely.


Lat... Lon 3866 11896 3861 11893 3850 11894 3848 11911
      3861 11913